Time;durP1;ratioP1;P1;durP2;ratioP2;P2;SDS_P1;SDS_P2;PMS_P1;PMS_P2;Temp;Humidity;BMP_temperature;BMP_pressure;BME280_temperature;BME280_humidity;BME280_pressure;Samples;Min_cycle;Max_cycle;Signal;HPM_P1;HPM_P2
2022/07/02 00:00:01;;;;;;;5.03;2.25;;;16.00;78.60;;;;;;5024790;28;20423;-68
2022/07/02 00:02:28;;;;;;;15.00;2.55;;;16.00;78.60;;;;;;5023343;28;20026;-68
2022/07/02 00:04:59;;;;;;;9.07;2.30;;;16.00;78.60;;;;;;5024676;28;20053;-69
2022/07/02 00:07:26;;;;;;;3.35;2.50;;;16.00;78.60;;;;;;5024311;28;20033;-70
2022/07/02 00:09:54;;;;;;;10.32;2.28;;;16.00;78.60;;;;;;5023398;28;20030;-68
2022/07/02 00:12:21;;;;;;;5.63;2.50;;;16.00;79.50;;;;;;5019013;28;20124;-71
2022/07/02 00:14:51;;;;;;;29.05;2.55;;;16.00;78.60;;;;;;5023975;28;20056;-69
2022/07/02 00:17:17;;;;;;;22.55;2.15;;;16.00;78.90;;;;;;5025135;28;20523;-70
2022/07/02 00:19:43;;;;;;;6.35;2.17;;;16.00;78.90;;;;;;5021613;28;20042;-69
2022/07/02 00:22:10;;;;;;;6.25;2.20;;;16.00;78.80;;;;;;5022756;28;20034;-69
2022/07/02 00:24:41;;;;;;;8.38;2.03;;;16.00;79.10;;;;;;5023795;28;20080;-69
2022/07/02 00:27:12;;;;;;;6.80;1.85;;;16.00;79.10;;;;;;5021068;28;20033;-67
2022/07/02 00:29:51;;;;;;;21.40;2.42;;;16.00;79.30;;;;;;5023217;28;20108;-70
2022/07/02 00:32:17;;;;;;;12.02;2.03;;;16.10;79.30;;;;;;5019149;28;20116;-68
2022/07/02 00:34:45;;;;;;;43.50;2.95;;;16.10;79.20;;;;;;5021482;28;20033;-68
2022/07/02 00:37:11;;;;;;;9.63;2.20;;;16.10;79.40;;;;;;5020350;28;20492;-69
2022/07/02 00:39:37;;;;;;;9.45;2.03;;;16.10;79.60;;;;;;5022861;28;20053;-68
2022/07/02 00:42:04;;;;;;;34.78;1.80;;;16.10;79.60;;;;;;5021980;28;20061;-68
2022/07/02 00:44:31;;;;;;;12.15;1.90;;;16.10;79.50;;;;;;5023502;28;20542;-70
2022/07/02 00:47:03;;;;;;;7.70;1.30;;;16.10;79.30;;;;;;5022284;28;20189;-68
2022/07/02 00:49:30;;;;;;;1.35;1.20;;;16.10;79.30;;;;;;5018027;28;20107;-69
2022/07/02 00:51:56;;;;;;;2.92;1.10;;;16.00;79.00;;;;;;5021831;28;20044;-69
2022/07/02 00:54:21;;;;;;;12.50;1.55;;;16.00;79.20;;;;;;5019517;28;20050;-68
2022/07/02 00:56:47;;;;;;;4.30;1.30;;;15.90;79.20;;;;;;5022135;28;20072;-68
2022/07/02 00:59:12;;;;;;;7.63;1.75;;;15.90;79.30;;;;;;5025606;28;20038;-68
2022/07/02 01:01:38;;;;;;;4.40;1.40;;;15.90;79.40;;;;;;5022391;28;20504;-71
2022/07/02 01:04:05;;;;;;;20.85;2.05;;;15.90;79.50;;;;;;5019151;28;20037;-70
2022/07/02 01:06:33;;;;;;;16.73;2.00;;;15.90;79.60;;;;;;5018957;28;20041;-69
2022/07/02 01:11:46;;;;;;;2.35;2.15;;;15.90;79.80;;;;;;5019418;28;20064;-69
2022/07/02 01:14:13;;;;;;;113.30;4.50;;;15.90;79.60;;;;;;5021803;28;20403;-68
2022/07/02 01:16:38;;;;;;;109.40;3.35;;;15.90;79.60;;;;;;5021857;28;20033;-67
2022/07/02 01:19:05;;;;;;;151.07;4.22;;;15.90;79.60;;;;;;5020326;28;20033;-71
2022/07/02 01:21:30;;;;;;;80.55;3.28;;;15.90;79.80;;;;;;5021536;28;20041;-67
2022/07/02 01:23:56;;;;;;;46.83;2.53;;;15.80;79.80;;;;;;5020304;28;20079;-70
2022/07/02 01:26:22;;;;;;;26.83;2.83;;;15.80;80.00;;;;;;5021632;28;20052;-70
2022/07/02 01:28:47;;;;;;;9.55;2.10;;;15.80;80.30;;;;;;5022593;28;20034;-70
2022/07/02 01:31:13;;;;;;;37.83;2.50;;;15.70;80.50;;;;;;5021271;28;20049;-67
2022/07/02 01:33:39;;;;;;;30.92;2.40;;;15.70;80.60;;;;;;5022387;28;20364;-70
2022/07/02 01:36:04;;;;;;;10.75;2.45;;;15.70;80.60;;;;;;5018051;28;20061;-71
2022/07/02 01:38:30;;;;;;;37.85;2.58;;;15.70;80.60;;;;;;5021832;28;20405;-70
2022/07/02 01:41:38;;;;;;;32.13;2.70;;;15.70;80.60;;;;;;5021091;28;20269;-68
2022/07/02 01:43:41;;;;;;;1.80;1.70;;;15.70;80.60;;;;;;5019315;28;20052;-71
2022/07/02 01:46:07;;;;;;;44.60;2.58;;;15.70;80.60;;;;;;5020524;28;20500;-70
2022/07/02 01:48:32;;;;;;;74.85;3.58;;;15.70;80.90;;;;;;5021008;28;20046;-67
2022/07/02 01:50:58;;;;;;;15.10;2.28;;;15.70;81.00;;;;;;5018598;28;20042;-68
2022/07/02 01:53:23;;;;;;;31.77;2.40;;;15.70;81.70;;;;;;5018744;28;20322;-68
2022/07/02 01:55:49;;;;;;;39.80;2.58;;;15.70;81.10;;;;;;5018723;28;20030;-69
2022/07/02 01:58:15;;;;;;;38.38;2.25;;;15.70;81.00;;;;;;5017341;28;20063;-68
2022/07/02 02:00:40;;;;;;;15.63;1.88;;;15.70;80.90;;;;;;5018171;28;20034;-70
2022/07/02 02:03:06;;;;;;;11.25;2.45;;;15.70;81.00;;;;;;5022951;28;20385;-69
2022/07/02 02:05:31;;;;;;;16.65;2.75;;;15.70;81.10;;;;;;5020407;28;20038;-68
2022/07/02 02:07:57;;;;;;;15.77;2.85;;;15.60;81.20;;;;;;5019926;28;20148;-71
2022/07/02 02:10:22;;;;;;;6.13;2.50;;;15.60;81.20;;;;;;5022135;28;20124;-67
2022/07/02 02:12:48;;;;;;;3.30;2.25;;;15.60;81.20;;;;;;5015400;28;20484;-67
2022/07/02 02:15:14;;;;;;;35.03;2.70;;;15.60;81.20;;;;;;5019904;28;20044;-68
2022/07/02 02:17:39;;;;;;;15.70;2.17;;;15.60;81.40;;;;;;5019474;28;20116;-68
2022/07/02 02:20:05;;;;;;;5.15;2.03;;;15.60;81.30;;;;;;5022321;28;20037;-68
2022/07/02 02:22:31;;;;;;;14.07;2.35;;;15.60;81.50;;;;;;5019149;28;20124;-70
2022/07/02 02:24:57;;;;;;;46.47;2.47;;;15.60;81.50;;;;;;5019382;28;20552;-68
2022/07/02 02:27:23;;;;;;;4.50;1.95;;;15.60;81.30;;;;;;5019905;28;20030;-67
2022/07/02 02:29:48;;;;;;;6.57;2.13;;;15.60;81.30;;;;;;5019034;28;20095;-67
2022/07/02 02:32:14;;;;;;;12.75;2.10;;;15.60;81.30;;;;;;5019333;28;20125;-68
2022/07/02 02:34:39;;;;;;;5.97;2.17;;;15.70;81.20;;;;;;5019961;28;20459;-68
2022/07/02 02:37:05;;;;;;;16.77;2.20;;;15.60;81.00;;;;;;5018811;28;20475;-68
2022/07/02 02:39:31;;;;;;;7.22;2.05;;;15.60;80.90;;;;;;5019935;28;20064;-68
2022/07/02 02:41:56;;;;;;;22.20;2.15;;;15.60;80.70;;;;;;5018535;28;20037;-69
2022/07/02 02:44:22;;;;;;;19.08;1.90;;;15.60;80.80;;;;;;5020617;28;20072;-69
2022/07/02 02:46:47;;;;;;;26.27;2.60;;;15.60;80.60;;;;;;5018037;28;20401;-68
2022/07/02 02:49:13;;;;;;;27.05;1.60;;;15.60;80.80;;;;;;5022524;28;20033;-66
2022/07/02 02:51:39;;;;;;;24.40;2.25;;;15.50;80.70;;;;;;5019676;28;20037;-70
2022/07/02 02:54:04;;;;;;;61.95;2.65;;;15.50;80.70;;;;;;5020706;28;20564;-69
2022/07/02 02:56:30;;;;;;;63.88;3.05;;;15.50;80.60;;;;;;5019118;28;20559;-68
2022/07/02 02:58:55;;;;;;;77.43;3.08;;;15.50;80.10;;;;;;5017918;28;20049;-71
2022/07/02 03:01:21;;;;;;;63.60;2.92;;;15.50;80.00;;;;;;5021088;28;20041;-70
2022/07/02 03:03:47;;;;;;;97.45;3.58;;;15.40;80.00;;;;;;5020106;28;20537;-72
2022/07/02 03:06:12;;;;;;;25.38;2.10;;;15.30;79.90;;;;;;5025753;28;20076;-68
2022/07/02 03:08:38;;;;;;;29.38;2.35;;;15.20;80.00;;;;;;5022579;28;20042;-68
2022/07/02 03:11:03;;;;;;;28.63;2.90;;;15.10;80.50;;;;;;5022037;28;20029;-70
2022/07/02 03:13:29;;;;;;;54.30;3.10;;;15.00;81.00;;;;;;5024350;28;20531;-69
2022/07/02 03:15:54;;;;;;;35.53;3.10;;;14.90;81.10;;;;;;5024739;28;20029;-67
2022/07/02 03:18:20;;;;;;;89.28;4.07;;;14.90;81.20;;;;;;5024097;28;20069;-68
2022/07/02 03:20:46;;;;;;;10.10;2.20;;;14.90;81.30;;;;;;5022981;28;20090;-70
2022/07/02 03:23:11;;;;;;;12.85;2.28;;;14.80;81.30;;;;;;5023146;28;20026;-69
2022/07/02 03:25:37;;;;;;;39.03;3.10;;;14.80;81.70;;;;;;5022213;28;20038;-68
2022/07/02 03:28:03;;;;;;;11.68;2.60;;;14.70;82.00;;;;;;5024207;28;20423;-69
2022/07/02 03:30:29;;;;;;;16.45;2.60;;;14.80;83.10;;;;;;5024939;28;20041;-69
2022/07/02 03:32:54;;;;;;;8.43;2.72;;;14.80;82.50;;;;;;5023241;28;20407;-67
2022/07/02 03:35:20;;;;;;;33.97;2.95;;;14.80;82.60;;;;;;5022778;28;20033;-69
2022/07/02 03:37:45;;;;;;;65.18;3.33;;;14.80;82.50;;;;;;5024256;28;20065;-68
2022/07/02 03:40:11;;;;;;;15.65;2.35;;;14.80;82.40;;;;;;5021583;28;20408;-67
2022/07/02 03:42:37;;;;;;;108.65;4.85;;;14.80;82.30;;;;;;5019961;28;20038;-67
2022/07/02 03:45:03;;;;;;;19.17;3.20;;;14.80;82.20;;;;;;5022833;28;20033;-67
2022/07/02 03:47:28;;;;;;;24.13;3.10;;;14.80;82.40;;;;;;5024884;28;20462;-69
2022/07/02 03:49:54;;;;;;;12.35;2.78;;;14.80;82.60;;;;;;5022500;28;20025;-71
2022/07/02 03:52:20;;;;;;;5.60;2.78;;;14.80;82.80;;;;;;5022309;28;20530;-70
2022/07/02 03:54:45;;;;;;;48.20;3.85;;;14.80;82.90;;;;;;5022734;28;20033;-70
2022/07/02 03:57:11;;;;;;;24.05;3.03;;;14.80;83.10;;;;;;5023709;28;20148;-67
2022/07/02 03:59:36;;;;;;;13.10;2.70;;;14.90;83.10;;;;;;5022435;28;20095;-69
2022/07/02 04:02:02;;;;;;;43.13;3.03;;;14.90;82.90;;;;;;5022477;28;20153;-68
2022/07/02 04:04:28;;;;;;;4.95;2.30;;;14.80;82.70;;;;;;5022239;28;20037;-70
2022/07/02 04:06:54;;;;;;;75.13;3.65;;;14.90;82.80;;;;;;5024146;28;20430;-69
2022/07/02 04:09:19;;;;;;;47.70;3.42;;;14.90;82.90;;;;;;5023192;28;20103;-68
2022/07/02 04:11:45;;;;;;;5.05;2.72;;;14.90;82.80;;;;;;5021494;28;20564;-69
2022/07/02 04:14:11;;;;;;;3.65;2.42;;;14.90;82.80;;;;;;5022262;28;20060;-68
2022/07/02 04:16:36;;;;;;;11.70;3.00;;;14.90;83.00;;;;;;5027049;28;20124;-68
2022/07/02 04:19:02;;;;;;;44.58;3.58;;;14.90;83.10;;;;;;5021235;28;20091;-69
2022/07/02 04:21:28;;;;;;;16.80;2.85;;;14.90;83.10;;;;;;5023313;28;20416;-68
2022/07/02 04:23:53;;;;;;;2.90;2.60;;;14.90;83.10;;;;;;5020028;28;20029;-69
2022/07/02 04:26:19;;;;;;;18.02;2.67;;;15.00;83.40;;;;;;5021770;28;20045;-67
2022/07/02 04:28:44;;;;;;;2.67;2.50;;;15.00;83.40;;;;;;5022620;28;20407;-68
2022/07/02 04:31:10;;;;;;;11.80;2.47;;;15.00;83.40;;;;;;5023559;28;20124;-70
2022/07/02 04:33:36;;;;;;;64.60;3.33;;;15.00;83.30;;;;;;5019349;28;20262;-69
2022/07/02 04:36:01;;;;;;;44.17;3.17;;;15.10;83.20;;;;;;5020824;28;20033;-71
2022/07/02 04:38:27;;;;;;;9.63;3.08;;;15.10;83.10;;;;;;5020333;28;20504;-69
2022/07/02 04:40:53;;;;;;;61.55;3.22;;;15.10;83.20;;;;;;5021469;28;20404;-68
2022/07/02 04:43:18;;;;;;;18.20;2.90;;;15.10;83.20;;;;;;5020940;28;20113;-69
2022/07/02 04:45:44;;;;;;;10.02;2.72;;;15.10;82.90;;;;;;5023646;28;20108;-69
2022/07/02 04:48:09;;;;;;;5.57;3.00;;;15.20;83.10;;;;;;5023169;28;20132;-69
2022/07/02 04:50:35;;;;;;;9.93;3.20;;;15.20;83.30;;;;;;5022572;28;20492;-69
2022/07/02 04:53:01;;;;;;;15.20;3.10;;;15.20;83.40;;;;;;5019887;28;20036;-68
2022/07/02 04:55:26;;;;;;;4.93;2.83;;;15.20;83.40;;;;;;5018766;28;20041;-69
2022/07/02 04:57:52;;;;;;;8.98;3.50;;;15.30;83.50;;;;;;5022590;28;20045;-69
2022/07/02 05:00:18;;;;;;;3.97;3.13;;;15.30;83.50;;;;;;5023634;28;20033;-67
2022/07/02 05:02:43;;;;;;;3.88;2.75;;;15.30;83.40;;;;;;5022849;28;20052;-68
2022/07/02 05:05:09;;;;;;;5.57;3.17;;;15.30;83.50;;;;;;5021070;28;20472;-68
2022/07/02 05:07:35;;;;;;;6.30;3.50;;;15.40;83.60;;;;;;5022665;28;20120;-70
2022/07/02 05:10:01;;;;;;;4.82;2.88;;;15.40;83.50;;;;;;5020740;28;20124;-70
2022/07/02 05:12:26;;;;;;;5.22;2.53;;;15.40;83.50;;;;;;5021897;28;20535;-69
2022/07/02 05:14:52;;;;;;;3.20;2.72;;;15.50;83.50;;;;;;5023382;28;20026;-71
2022/07/02 05:17:18;;;;;;;3.65;2.70;;;15.50;83.40;;;;;;5021696;28;20052;-71
2022/07/02 05:19:44;;;;;;;3.70;2.70;;;15.50;83.20;;;;;;5021786;28;20037;-67
2022/07/02 05:22:10;;;;;;;2.80;2.60;;;15.60;83.20;;;;;;5023557;28;20576;-68
2022/07/02 05:24:35;;;;;;;2.88;2.67;;;15.60;83.10;;;;;;5022457;28;20124;-70
2022/07/02 05:27:01;;;;;;;4.85;2.67;;;15.60;83.00;;;;;;5023502;28;20125;-71
2022/07/02 05:29:26;;;;;;;2.70;2.50;;;15.60;82.90;;;;;;5022731;28;20413;-70
2022/07/02 05:31:52;;;;;;;4.47;2.88;;;15.60;82.90;;;;;;5023162;28;20038;-68
2022/07/02 05:34:18;;;;;;;4.05;2.75;;;15.60;82.90;;;;;;5022106;28;20119;-69
2022/07/02 05:36:44;;;;;;;3.45;2.30;;;15.50;82.60;;;;;;5019952;28;20499;-70
2022/07/02 05:39:09;;;;;;;2.45;2.25;;;15.50;82.70;;;;;;5020179;28;20053;-70
2022/07/02 05:41:35;;;;;;;3.38;2.13;;;15.60;83.10;;;;;;5021763;28;20038;-69
2022/07/02 05:44:00;;;;;;;2.47;2.30;;;15.50;83.30;;;;;;5024753;28;20569;-68
2022/07/02 05:46:26;;;;;;;2.60;2.40;;;15.50;83.40;;;;;;5020644;28;20034;-71
2022/07/02 05:48:52;;;;;;;2.42;2.20;;;15.50;83.60;;;;;;5023288;28;20037;-68
2022/07/02 05:51:17;;;;;;;2.58;2.38;;;15.60;83.90;;;;;;5019525;28;20037;-67
2022/07/02 05:53:43;;;;;;;2.70;2.50;;;15.60;84.00;;;;;;5021502;28;20037;-68
2022/07/02 05:56:08;;;;;;;2.75;2.55;;;15.70;84.20;;;;;;5017780;28;20041;-69
2022/07/02 05:58:34;;;;;;;2.30;2.20;;;15.70;84.10;;;;;;5009482;28;20046;-69
2022/07/02 06:01:00;;;;;;;2.47;2.28;;;15.70;84.00;;;;;;5003241;28;20412;-68
2022/07/02 06:03:25;;;;;;;2.25;2.00;;;15.80;84.20;;;;;;5011481;28;20105;-71
2022/07/02 06:08:39;;;;;;;2.35;1.95;;;16.00;85.00;;;;;;5018804;28;20713;-68
2022/07/02 06:11:04;;;;;;;2.13;2.03;;;16.10;85.30;;;;;;5010073;28;20215;-69
2022/07/02 06:13:30;;;;;;;2.38;2.20;;;16.20;85.20;;;;;;5010235;28;20053;-68
2022/07/02 06:15:55;;;;;;;2.58;2.38;;;16.20;85.00;;;;;;5014588;28;20508;-68
2022/07/02 06:18:21;;;;;;;2.45;2.30;;;16.30;84.50;;;;;;5005184;28;20041;-68
2022/07/02 06:20:47;;;;;;;3.00;2.50;;;16.40;83.60;;;;;;5017849;28;20041;-69
2022/07/02 06:23:12;;;;;;;4.45;2.42;;;16.40;83.20;;;;;;5013781;28;20631;-69
2022/07/02 06:25:38;;;;;;;2.33;2.22;;;16.40;83.20;;;;;;5019953;28;20030;-69
2022/07/02 06:28:04;;;;;;;2.70;2.50;;;16.40;82.90;;;;;;5014501;28;20038;-69
2022/07/02 06:30:29;;;;;;;2.42;2.33;;;16.40;83.30;;;;;;5013266;28;20056;-72
2022/07/02 06:32:55;;;;;;;2.58;2.28;;;16.50;84.10;;;;;;5015007;28;20412;-68
2022/07/02 06:35:21;;;;;;;1.90;1.80;;;16.60;84.60;;;;;;5018615;28;20046;-69
2022/07/02 06:37:46;;;;;;;2.92;2.60;;;16.60;84.50;;;;;;5017773;28;20052;-67
2022/07/02 06:40:12;;;;;;;2.78;2.35;;;16.70;84.00;;;;;;5017670;28;20030;-67
2022/07/02 06:42:38;;;;;;;2.78;2.60;;;16.70;83.30;;;;;;5019647;28;20437;-67
2022/07/02 06:45:04;;;;;;;2.40;2.30;;;16.70;83.20;;;;;;5022717;28;20030;-73
2022/07/02 06:47:31;;;;;;;2.78;2.42;;;16.70;83.00;;;;;;5022116;28;20064;-71
2022/07/02 06:49:58;;;;;;;2.42;2.22;;;16.70;83.30;;;;;;5018736;28;20029;-67
2022/07/02 06:52:24;;;;;;;2.80;2.60;;;16.70;83.50;;;;;;5023678;28;20044;-69
2022/07/02 06:54:50;;;;;;;2.58;2.47;;;16.80;83.80;;;;;;5017817;28;20504;-69
2022/07/02 06:57:16;;;;;;;2.70;2.50;;;16.80;83.60;;;;;;5021518;28;20034;-70
2022/07/02 06:59:42;;;;;;;2.63;2.42;;;16.90;83.80;;;;;;5020096;28;20048;-70
2022/07/02 07:02:08;;;;;;;2.30;2.10;;;16.90;83.70;;;;;;5016377;28;20163;-68
2022/07/02 07:04:35;;;;;;;2.92;2.60;;;17.00;83.60;;;;;;5018781;28;20156;-71
2022/07/02 07:07:03;;;;;;;2.55;2.35;;;17.10;83.60;;;;;;5016008;28;20095;-68
2022/07/02 07:09:30;;;;;;;2.95;2.75;;;17.10;83.30;;;;;;5017968;28;20049;-68
2022/07/02 07:11:56;;;;;;;2.63;2.47;;;17.30;83.30;;;;;;5019376;28;20035;-69
2022/07/02 07:14:22;;;;;;;2.55;2.40;;;17.20;83.00;;;;;;5022988;28;20037;-68
2022/07/02 07:16:47;;;;;;;2.80;2.60;;;17.20;82.90;;;;;;5021955;28;20072;-67
2022/07/02 07:19:13;;;;;;;2.40;2.30;;;17.20;83.60;;;;;;5023366;28;20034;-69
2022/07/02 07:21:40;;;;;;;3.97;2.53;;;17.30;83.30;;;;;;5019727;28;20759;-68
2022/07/02 07:24:07;;;;;;;2.78;2.58;;;17.30;83.20;;;;;;5022569;28;20037;-70
2022/07/02 07:26:34;;;;;;;2.70;2.50;;;17.40;83.10;;;;;;5023152;28;20404;-69
2022/07/02 07:29:01;;;;;;;1.98;1.88;;;17.50;83.10;;;;;;5022501;28;20044;-70
2022/07/02 07:31:27;;;;;;;2.40;2.30;;;17.50;83.10;;;;;;5023067;28;20033;-69
2022/07/02 07:33:54;;;;;;;2.35;1.80;;;17.60;83.10;;;;;;5025929;28;20041;-70
2022/07/02 07:36:22;;;;;;;1.85;1.75;;;17.70;82.80;;;;;;5021240;28;20109;-69
2022/07/02 07:38:48;;;;;;;1.77;1.67;;;17.80;82.90;;;;;;5019309;28;20622;-68
2022/07/02 07:41:14;;;;;;;2.20;2.00;;;17.90;82.90;;;;;;5020611;28;20445;-70
2022/07/02 08:15:20;;;;;;;3.42;1.17;;;19.40;77.70;;;;;;5002614;27;20508;-64
2022/07/02 08:17:46;;;;;;;0.88;0.85;;;19.60;77.90;;;;;;5000050;28;20200;-64
2022/07/02 08:20:12;;;;;;;0.60;0.60;;;19.70;77.40;;;;;;4994735;28;20133;-64
2022/07/02 08:22:38;;;;;;;0.47;0.47;;;19.80;76.80;;;;;;4993239;27;20137;-64
2022/07/02 08:25:05;;;;;;;0.40;0.40;;;19.90;76.30;;;;;;4992019;27;20051;-64
2022/07/02 08:27:30;;;;;;;0.50;0.40;;;20.10;76.20;;;;;;5001323;28;20044;-64
2022/07/02 08:29:56;;;;;;;0.63;0.50;;;20.10;75.70;;;;;;4994655;27;20553;-65
2022/07/02 08:32:22;;;;;;;0.52;0.52;;;20.20;75.40;;;;;;4994063;27;20242;-64
2022/07/02 08:34:48;;;;;;;0.30;0.30;;;20.30;74.90;;;;;;4991568;27;20057;-64
2022/07/02 08:37:14;;;;;;;0.20;0.20;;;20.50;74.30;;;;;;4992405;27;20045;-64
2022/07/02 08:39:40;;;;;;;0.95;0.30;;;20.60;73.90;;;;;;4997825;28;20113;-64
2022/07/02 08:42:08;;;;;;;0.60;0.32;;;20.70;73.70;;;;;;4994476;27;20540;-64
2022/07/02 08:44:35;;;;;;;0.30;0.30;;;20.70;73.90;;;;;;4994686;27;20031;-64
2022/07/02 08:47:07;;;;;;;0.80;0.28;;;20.80;73.70;;;;;;4987481;28;20038;-64
2022/07/02 08:49:35;;;;;;;0.40;0.30;;;20.90;74.00;;;;;;5003371;27;20132;-64
2022/07/02 08:52:03;;;;;;;;;;;;;;;;;;;;;
2022/07/02 08:54:27;;;;;;;0.20;0.20;;;21.20;73.60;;;;;;4995293;27;20045;-64
2022/07/02 08:56:54;;;;;;;0.30;0.28;;;21.30;71.80;;;;;;4993709;27;20034;-64
2022/07/02 08:59:20;;;;;;;0.30;0.20;;;21.40;71.50;;;;;;4999564;27;20037;-64
2022/07/02 09:01:48;;;;;;;0.20;0.20;;;21.50;71.40;;;;;;4990886;27;20061;-64
2022/07/02 09:04:18;;;;;;;0.90;0.28;;;21.60;70.70;;;;;;4998958;27;20495;-64
2022/07/02 09:06:49;;;;;;;0.20;0.20;;;21.70;70.00;;;;;;4997706;27;20058;-64
2022/07/02 09:09:15;;;;;;;0.22;0.20;;;21.80;70.10;;;;;;4995470;27;20037;-64
2022/07/02 09:11:41;;;;;;;0.20;0.20;;;21.90;69.60;;;;;;4992870;27;20042;-64
2022/07/02 09:14:08;;;;;;;1.52;0.20;;;22.00;69.20;;;;;;4993847;27;20573;-64
2022/07/02 09:16:34;;;;;;;0.88;0.20;;;22.10;67.90;;;;;;5001760;27;20324;-64
2022/07/02 09:19:00;;;;;;;0.10;0.10;;;22.20;68.30;;;;;;4998968;27;20473;-64
2022/07/02 09:21:26;;;;;;;0.55;0.20;;;22.30;67.80;;;;;;4992728;27;20125;-64
2022/07/02 09:23:51;;;;;;;0.60;0.20;;;22.40;67.50;;;;;;4990700;28;20046;-64
2022/07/02 09:26:21;;;;;;;0.30;0.10;;;22.50;66.90;;;;;;4981225;27;20510;-64
2022/07/02 09:29:00;;;;;;;1.00;0.30;;;22.60;65.30;;;;;;4989278;27;20087;-64
2022/07/02 09:31:46;;;;;;;1.02;0.20;;;22.60;64.30;;;;;;4982951;28;20430;-64
2022/07/02 09:34:25;;;;;;;0.20;0.20;;;22.80;64.60;;;;;;4978052;27;20137;-64
2022/07/02 09:36:50;;;;;;;0.10;0.10;;;22.80;63.60;;;;;;4997064;28;20117;-65
2022/07/02 09:39:27;;;;;;;0.13;0.10;;;22.90;64.60;;;;;;5001528;28;20113;-64
2022/07/02 09:41:53;;;;;;;0.10;0.10;;;22.90;62.90;;;;;;5000164;28;20037;-64
2022/07/02 09:44:19;;;;;;;2.42;0.20;;;23.00;64.00;;;;;;5004083;28;20041;-64
2022/07/02 09:46:44;;;;;;;0.65;0.10;;;23.00;63.60;;;;;;5000654;28;20069;-64
2022/07/02 09:49:12;;;;;;;0.20;0.20;;;23.10;63.00;;;;;;5003520;28;20038;-64
2022/07/02 09:51:58;;;;;;;0.17;0.17;;;23.20;63.10;;;;;;4982098;28;20041;-63
2022/07/02 09:54:25;;;;;;;0.43;0.20;;;23.20;60.80;;;;;;4990413;28;20705;-63
2022/07/02 09:56:58;;;;;;;0.50;0.10;;;23.30;61.40;;;;;;4980395;28;20114;-63
2022/07/02 09:59:24;;;;;;;0.20;0.20;;;23.40;59.90;;;;;;4994318;28;20044;-63
2022/07/02 10:01:50;;;;;;;0.20;0.20;;;23.40;61.00;;;;;;4984158;28;20075;-66
2022/07/02 10:04:30;;;;;;;0.20;0.20;;;23.50;60.80;;;;;;4987640;28;20049;-63
2022/07/02 10:06:57;;;;;;;1.95;0.20;;;23.60;59.10;;;;;;5001033;28;20615;-63
2022/07/02 10:09:25;;;;;;;0.20;0.20;;;23.60;60.30;;;;;;5003888;28;20042;-63
2022/07/02 10:11:51;;;;;;;0.40;0.40;;;23.70;60.00;;;;;;5004374;28;20065;-63
2022/07/02 10:14:20;;;;;;;0.35;0.10;;;23.70;60.20;;;;;;5005037;28;20038;-62
2022/07/02 10:16:47;;;;;;;0.10;0.10;;;23.80;59.80;;;;;;5011063;28;20025;-63
2022/07/02 10:19:14;;;;;;;0.75;0.10;;;23.90;60.50;;;;;;5003276;28;20337;-63
2022/07/02 10:21:40;;;;;;;3.85;0.20;;;23.90;60.10;;;;;;5004816;28;20029;-63
2022/07/02 10:24:10;;;;;;;0.10;0.10;;;24.00;59.80;;;;;;5003257;28;20037;-63
2022/07/02 10:26:37;;;;;;;0.30;0.28;;;24.10;59.10;;;;;;5005184;28;20070;-63
2022/07/02 10:29:03;;;;;;;0.52;0.20;;;24.10;58.90;;;;;;5005490;28;20067;-63
2022/07/02 10:31:36;;;;;;;0.30;0.20;;;24.20;59.00;;;;;;5000645;28;20053;-63
2022/07/02 10:34:33;;;;;;;0.20;0.20;;;24.30;58.80;;;;;;5002561;28;20038;-63
2022/07/02 10:36:59;;;;;;;0.50;0.10;;;24.40;58.00;;;;;;5001696;28;20033;-64
2022/07/02 10:39:25;;;;;;;0.52;0.40;;;24.50;59.00;;;;;;5002727;28;20030;-63
2022/07/02 10:41:50;;;;;;;0.30;0.17;;;24.50;58.50;;;;;;5003519;28;20397;-63
2022/07/02 10:44:16;;;;;;;0.30;0.10;;;24.60;58.20;;;;;;5000214;28;20127;-63
2022/07/02 10:46:46;;;;;;;0.20;0.20;;;24.60;57.90;;;;;;5008455;28;20042;-64
2022/07/02 10:49:22;;;;;;;0.17;0.17;;;24.70;56.50;;;;;;5004799;28;20037;-63
2022/07/02 10:51:55;;;;;;;0.10;0.10;;;24.70;57.10;;;;;;5004934;28;20029;-63
2022/07/02 10:54:30;;;;;;;0.17;0.17;;;24.80;56.40;;;;;;5003097;28;20460;-63
2022/07/02 10:56:56;;;;;;;0.10;0.10;;;24.90;56.10;;;;;;5002741;28;20041;-64
2022/07/02 10:59:27;;;;;;;0.20;0.10;;;24.90;56.00;;;;;;5003479;28;20026;-63
2022/07/02 11:02:07;;;;;;;0.68;0.30;;;25.00;57.00;;;;;;5001900;28;20063;-64
2022/07/02 11:04:34;;;;;;;0.43;0.30;;;25.00;55.00;;;;;;5003183;28;20329;-64
2022/07/02 11:07:11;;;;;;;0.43;0.20;;;25.00;55.90;;;;;;5001558;28;20072;-66
2022/07/02 11:09:51;;;;;;;0.30;0.20;;;25.10;55.00;;;;;;5000223;28;20501;-63
2022/07/02 11:12:28;;;;;;;0.17;0.17;;;25.10;55.00;;;;;;5006374;28;20046;-63
2022/07/02 11:14:56;;;;;;;0.20;0.20;;;25.20;54.10;;;;;;5009787;28;20038;-63
2022/07/02 11:17:24;;;;;;;0.90;0.20;;;25.20;55.00;;;;;;5002175;28;20033;-64
2022/07/02 11:19:56;;;;;;;1.33;0.20;;;25.30;55.30;;;;;;5003495;28;20110;-64
2022/07/02 11:22:22;;;;;;;0.22;0.22;;;25.30;54.40;;;;;;5008308;28;20068;-64
2022/07/02 11:24:49;;;;;;;0.45;0.30;;;25.40;54.20;;;;;;5010088;28;20585;-63
2022/07/02 11:27:15;;;;;;;0.52;0.30;;;25.40;54.00;;;;;;5003355;27;20171;-64
2022/07/02 11:29:51;;;;;;;0.20;0.20;;;25.40;53.10;;;;;;5005094;28;20503;-63
2022/07/02 11:32:16;;;;;;;0.82;0.20;;;25.50;53.10;;;;;;5004475;28;20045;-63
2022/07/02 11:34:42;;;;;;;1.38;0.20;;;25.50;53.30;;;;;;5004887;28;20030;-63
2022/07/02 11:37:18;;;;;;;0.35;0.20;;;25.50;52.90;;;;;;5005698;28;20030;-63
2022/07/02 11:39:43;;;;;;;0.47;0.32;;;25.50;52.60;;;;;;5006128;28;20589;-63
2022/07/02 11:42:09;;;;;;;0.28;0.25;;;25.60;53.10;;;;;;5006899;28;20064;-63
2022/07/02 11:44:34;;;;;;;0.10;0.10;;;25.60;53.50;;;;;;5002952;28;20069;-64
2022/07/02 11:47:00;;;;;;;0.55;0.30;;;25.60;53.10;;;;;;5006647;28;20124;-64
2022/07/02 11:49:30;;;;;;;1.45;0.10;;;25.60;53.10;;;;;;5004717;28;20418;-63
2022/07/02 11:51:56;;;;;;;0.32;0.20;;;25.70;52.90;;;;;;5003421;28;20042;-63
2022/07/02 11:54:23;;;;;;;0.55;0.20;;;25.70;52.80;;;;;;5002695;28;20041;-63
2022/07/02 11:56:50;;;;;;;0.93;0.20;;;25.70;52.50;;;;;;5008208;28;20507;-63
2022/07/02 11:59:20;;;;;;;1.23;0.20;;;25.80;52.40;;;;;;4997391;28;20034;-64
2022/07/02 12:01:48;;;;;;;0.10;0.10;;;25.80;51.90;;;;;;4998260;28;20044;-63
2022/07/02 12:04:16;;;;;;;0.52;0.30;;;25.80;51.80;;;;;;4997396;28;20062;-63
2022/07/02 12:06:47;;;;;;;0.38;0.38;;;25.80;51.90;;;;;;4994129;28;20038;-63
2022/07/02 12:09:18;;;;;;;0.22;0.22;;;25.80;52.00;;;;;;5003253;28;20522;-63
2022/07/02 12:11:46;;;;;;;0.40;0.10;;;25.80;51.60;;;;;;4996739;28;20674;-62
2022/07/02 12:14:13;;;;;;;0.60;0.20;;;25.90;51.90;;;;;;4987941;28;20458;-63
2022/07/02 12:16:40;;;;;;;0.82;0.28;;;25.90;51.90;;;;;;4988554;28;20257;-63
2022/07/02 12:19:07;;;;;;;0.30;0.22;;;25.90;51.70;;;;;;4997704;28;20026;-63
2022/07/02 12:21:34;;;;;;;1.73;0.30;;;26.00;51.80;;;;;;4995675;28;20030;-63
2022/07/02 12:23:59;;;;;;;0.63;0.30;;;26.00;51.30;;;;;;4989125;28;20062;-63
2022/07/02 12:26:27;;;;;;;0.20;0.20;;;26.00;51.20;;;;;;4998585;28;20038;-62
2022/07/02 12:31:51;;;;;;;0.20;0.20;;;26.10;51.70;;;;;;4994384;28;20091;-63
2022/07/02 12:34:19;;;;;;;0.75;0.30;;;26.10;51.20;;;;;;4999486;28;20053;-64
2022/07/02 12:36:54;;;;;;;0.43;0.17;;;26.10;51.50;;;;;;4990715;28;20144;-63
2022/07/02 12:39:22;;;;;;;0.20;0.20;;;26.10;50.90;;;;;;4996581;28;20076;-63
2022/07/02 12:41:47;;;;;;;0.65;0.30;;;26.20;51.10;;;;;;4996312;28;20034;-63
2022/07/02 12:44:21;;;;;;;0.52;0.22;;;26.20;50.80;;;;;;4990574;28;20452;-64
2022/07/02 12:46:49;;;;;;;0.65;0.30;;;26.20;50.30;;;;;;4995477;28;20520;-63
2022/07/02 12:49:25;;;;;;;0.17;0.17;;;26.20;50.90;;;;;;4995550;28;20045;-63
2022/07/02 12:51:59;;;;;;;0.30;0.30;;;26.20;50.50;;;;;;4998021;28;21908;-63
2022/07/02 12:54:39;;;;;;;0.47;0.20;;;26.30;49.50;;;;;;4993680;28;20498;-63
2022/07/02 12:57:12;;;;;;;0.77;0.30;;;26.30;49.70;;;;;;4998250;28;20030;-63
2022/07/02 12:59:38;;;;;;;0.30;0.25;;;26.30;49.80;;;;;;5000168;28;20087;-63
2022/07/02 13:02:04;;;;;;;0.20;0.20;;;26.30;50.20;;;;;;5002379;28;20453;-63
2022/07/02 13:04:29;;;;;;;1.13;0.30;;;26.40;50.40;;;;;;4995783;28;20057;-73
2022/07/02 13:06:55;;;;;;;0.20;0.20;;;26.40;50.60;;;;;;4999850;28;20760;-68
2022/07/02 13:09:21;;;;;;;0.20;0.20;;;26.40;50.80;;;;;;5001157;28;20398;-63
2022/07/02 13:11:47;;;;;;;0.57;0.30;;;26.40;51.10;;;;;;4999807;28;20490;-65
2022/07/02 13:14:12;;;;;;;0.50;0.40;;;26.50;50.60;;;;;;4999770;28;20038;-63
2022/07/02 13:16:38;;;;;;;0.30;0.30;;;26.50;50.70;;;;;;5004866;28;20045;-63
2022/07/02 13:19:04;;;;;;;0.70;0.20;;;26.60;50.60;;;;;;5002333;28;20045;-63
2022/07/02 13:21:30;;;;;;;0.32;0.20;;;26.60;50.40;;;;;;5006273;28;20029;-63
2022/07/02 13:23:55;;;;;;;0.20;0.20;;;26.60;50.40;;;;;;5002851;28;20124;-63